createdAt,value
2024-02-23T00:02:21.496Z,10.80
2024-02-23T00:04:48.472Z,10.90
2024-02-23T00:07:15.448Z,10.90
2024-02-23T00:09:42.351Z,10.90
2024-02-23T00:12:10.192Z,10.90
2024-02-23T00:14:40.001Z,10.90
2024-02-23T00:17:07.403Z,11.00
2024-02-23T00:19:34.379Z,11.00
2024-02-23T00:22:01.836Z,11.00
2024-02-23T00:24:29.174Z,11.00
2024-02-23T00:26:56.158Z,11.00
2024-02-23T00:29:23.588Z,11.00
2024-02-23T00:31:50.982Z,11.00
2024-02-23T00:34:18.199Z,11.10
2024-02-23T00:36:46.239Z,11.10
2024-02-23T00:39:13.475Z,11.10
2024-02-23T00:41:40.526Z,11.10
2024-02-23T00:44:07.681Z,11.20
2024-02-23T00:46:35.279Z,11.20
2024-02-23T00:49:02.439Z,11.20
2024-02-23T00:51:29.430Z,11.20
2024-02-23T00:53:56.358Z,11.20
2024-02-23T00:56:27.613Z,11.20
2024-02-23T00:59:00.194Z,11.30
2024-02-23T01:01:28.077Z,11.30
2024-02-23T01:03:55.482Z,11.30
2024-02-23T01:06:22.623Z,11.30
2024-02-23T01:08:49.588Z,11.30
2024-02-23T01:11:16.724Z,11.20
2024-02-23T01:13:43.720Z,11.20
2024-02-23T01:16:10.624Z,11.20
2024-02-23T01:18:37.711Z,11.10
2024-02-23T01:21:04.791Z,11.10
2024-02-23T01:23:31.769Z,11.00
2024-02-23T01:26:00.656Z,11.00
2024-02-23T01:28:27.634Z,10.90
2024-02-23T01:30:54.515Z,10.90
2024-02-23T01:33:21.594Z,10.90
2024-02-23T01:35:48.577Z,10.80
2024-02-23T01:38:20.340Z,10.80
2024-02-23T01:40:47.880Z,10.80
2024-02-23T01:43:15.146Z,10.70
2024-02-23T01:45:42.056Z,10.60
2024-02-23T01:48:09.224Z,10.50
2024-02-23T01:50:36.705Z,10.50
2024-02-23T01:53:04.231Z,10.40
2024-02-23T01:55:34.854Z,10.30
2024-02-23T01:58:05.582Z,10.30
2024-02-23T02:00:35.599Z,10.20
2024-02-23T02:03:03.476Z,10.10
2024-02-23T02:05:30.621Z,10.10
2024-02-23T02:08:01.884Z,10.10
2024-02-23T02:10:28.841Z,10.10
2024-02-23T02:12:55.902Z,10.10
2024-02-23T02:15:23.468Z,10.10
2024-02-23T02:17:50.539Z,10.10
2024-02-23T02:20:20.491Z,10.10
2024-02-23T02:22:47.507Z,10.00
2024-02-23T02:25:17.062Z,10.10
2024-02-23T02:27:46.680Z,10.20
2024-02-23T02:30:14.490Z,10.20
2024-02-23T02:32:41.781Z,10.20
2024-02-23T02:35:11.458Z,10.20
2024-02-23T02:37:38.406Z,10.20
2024-02-23T02:40:05.988Z,10.20
2024-02-23T02:42:33.828Z,10.20
2024-02-23T02:45:00.749Z,10.20
2024-02-23T02:47:28.395Z,10.10
2024-02-23T02:49:55.308Z,10.20
2024-02-23T02:52:24.457Z,10.20
2024-02-23T02:54:51.907Z,10.20
2024-02-23T02:57:18.802Z,10.20
2024-02-23T02:59:47.388Z,10.20
2024-02-23T03:02:14.641Z,10.20
2024-02-23T03:04:49.063Z,10.20
2024-02-23T03:07:17.168Z,10.20
2024-02-23T03:09:44.271Z,10.20
2024-02-23T03:12:12.400Z,10.20
2024-02-23T03:14:41.738Z,10.20
2024-02-23T03:17:10.972Z,10.10
2024-02-23T03:19:38.730Z,10.10
2024-02-23T03:22:06.661Z,10.20
2024-02-23T03:24:34.221Z,10.10
2024-02-23T03:27:01.518Z,10.10
2024-02-23T03:29:31.828Z,10.10
2024-02-23T03:31:59.365Z,10.10
2024-02-23T03:34:26.736Z,10.00
2024-02-23T03:36:54.055Z,10.00
2024-02-23T03:39:20.946Z,10.00
2024-02-23T03:41:47.864Z,9.90
2024-02-23T03:44:14.785Z,9.90
2024-02-23T03:46:41.757Z,10.00
2024-02-23T03:49:08.787Z,10.00
2024-02-23T03:51:37.987Z,9.90
2024-02-23T03:54:04.972Z,9.90
2024-02-23T03:56:38.450Z,9.90
2024-02-23T03:59:05.907Z,9.80
2024-02-23T04:01:32.782Z,9.80
2024-02-23T04:04:00.421Z,9.80
2024-02-23T04:06:27.408Z,9.80
2024-02-23T04:08:54.370Z,9.80
2024-02-23T04:11:21.459Z,9.70
2024-02-23T04:13:50.781Z,9.70
2024-02-23T04:16:19.359Z,9.70
2024-02-23T04:18:46.367Z,9.60
2024-02-23T04:21:13.318Z,9.60
2024-02-23T04:23:40.234Z,9.60
2024-02-23T04:26:07.177Z,9.60
2024-02-23T04:28:34.923Z,9.60
2024-02-23T04:31:02.031Z,9.60
2024-02-23T04:33:28.992Z,9.60
2024-02-23T04:35:55.984Z,9.70
2024-02-23T04:38:22.946Z,9.60
2024-02-23T04:40:49.883Z,9.60
2024-02-23T04:43:16.844Z,9.60
2024-02-23T04:45:43.792Z,9.70
2024-02-23T04:48:11.571Z,9.70
2024-02-23T04:50:38.634Z,9.70
2024-02-23T04:53:05.740Z,9.70
2024-02-23T04:55:32.714Z,9.70
2024-02-23T04:57:59.657Z,9.70
2024-02-23T05:00:33.915Z,9.70
2024-02-23T05:03:04.639Z,9.70
2024-02-23T05:05:33.122Z,9.70
2024-02-23T05:08:00.913Z,9.80
2024-02-23T05:10:28.050Z,9.70
2024-02-23T05:12:55.110Z,9.80
2024-02-23T05:15:22.368Z,9.80
2024-02-23T05:17:49.529Z,9.80
2024-02-23T05:20:16.723Z,9.70
2024-02-23T05:22:44.277Z,9.80
2024-02-23T05:25:11.212Z,9.80
2024-02-23T05:27:38.228Z,9.80
2024-02-23T05:30:05.721Z,9.80
2024-02-23T05:32:32.805Z,9.90
2024-02-23T05:34:59.833Z,9.90
2024-02-23T05:37:28.235Z,9.90
2024-02-23T05:39:55.479Z,9.90
2024-02-23T05:42:22.493Z,9.80
2024-02-23T05:44:52.166Z,9.80
2024-02-23T05:47:19.232Z,9.80
2024-02-23T05:49:46.176Z,9.80
2024-02-23T05:52:13.131Z,9.80
2024-02-23T05:54:40.056Z,9.80
2024-02-23T05:57:07.006Z,9.70
2024-02-23T05:59:34.018Z,9.70
2024-02-23T06:02:00.982Z,9.70
2024-02-23T06:04:28.806Z,9.70
2024-02-23T06:06:55.981Z,9.70
2024-02-23T06:09:23.235Z,9.70
2024-02-23T06:11:50.327Z,9.70
2024-02-23T06:14:17.435Z,9.70
2024-02-23T06:16:44.424Z,9.70
2024-02-23T06:19:11.634Z,9.70
2024-02-23T06:21:38.836Z,9.70
2024-02-23T06:24:06.344Z,9.70
2024-02-23T06:26:33.461Z,9.60
2024-02-23T06:29:00.546Z,9.60
2024-02-23T06:31:27.909Z,9.60
2024-02-23T06:33:55.038Z,9.60
2024-02-23T06:36:22.089Z,9.60
2024-02-23T06:38:49.044Z,9.60
2024-02-23T06:41:16.424Z,9.60
2024-02-23T06:43:43.472Z,9.60
2024-02-23T06:46:11.276Z,9.60
2024-02-23T06:48:38.878Z,9.60
2024-02-23T06:51:06.845Z,9.60
2024-02-23T06:53:33.837Z,9.60
2024-02-23T06:56:02.081Z,9.50
2024-02-23T06:58:29.304Z,9.60
2024-02-23T07:00:56.242Z,9.60
2024-02-23T07:03:23.421Z,9.60
2024-02-23T07:05:51.459Z,9.70
2024-02-23T07:08:18.570Z,9.70
2024-02-23T07:10:45.498Z,9.70
2024-02-23T07:13:12.569Z,9.70
2024-02-23T07:15:39.651Z,9.80
2024-02-23T07:18:07.043Z,9.80
2024-02-23T07:20:35.717Z,9.90
2024-02-23T07:23:02.748Z,9.90
2024-02-23T07:25:29.693Z,9.90
2024-02-23T07:27:57.019Z,10.00
2024-02-23T07:30:23.928Z,10.00
2024-02-23T07:32:53.003Z,10.00
2024-02-23T07:35:20.916Z,10.00
2024-02-23T07:37:48.058Z,10.10
2024-02-23T07:40:17.352Z,10.10
2024-02-23T07:42:46.733Z,10.00
2024-02-23T07:45:13.798Z,10.10
2024-02-23T07:47:40.894Z,10.10
2024-02-23T07:50:08.727Z,10.10
2024-02-23T07:52:35.735Z,10.10
2024-02-23T07:55:04.248Z,10.10
2024-02-23T07:57:32.622Z,10.10
2024-02-23T07:59:59.576Z,10.10
2024-02-23T08:02:26.528Z,10.20
2024-02-23T08:04:54.111Z,10.10
2024-02-23T08:07:21.259Z,10.10
2024-02-23T08:09:48.132Z,10.10
2024-02-23T08:12:15.435Z,10.20
2024-02-23T08:14:43.712Z,10.20
2024-02-23T08:17:11.619Z,10.20
2024-02-23T08:19:38.649Z,10.20
2024-02-23T08:22:05.646Z,10.10
2024-02-23T08:24:32.746Z,10.10
2024-02-23T08:26:59.822Z,10.10
2024-02-23T08:29:28.127Z,10.30
2024-02-23T08:31:55.437Z,10.30
2024-02-23T08:34:22.490Z,10.30
2024-02-23T08:36:49.462Z,10.30
2024-02-23T08:39:16.432Z,10.30
2024-02-23T08:41:43.391Z,10.30
2024-02-23T08:44:10.407Z,10.40
2024-02-23T08:46:40.500Z,10.40
2024-02-23T08:49:07.547Z,10.40
2024-02-23T08:51:34.507Z,10.50
2024-02-23T08:54:05.767Z,10.50
2024-02-23T08:56:33.368Z,10.50
2024-02-23T08:59:00.566Z,10.50
2024-02-23T09:01:27.575Z,10.50
2024-02-23T09:03:54.518Z,10.50
2024-02-23T09:06:21.757Z,10.60
2024-02-23T09:08:48.990Z,10.50
2024-02-23T09:11:16.622Z,10.60
2024-02-23T09:13:43.938Z,10.60
2024-02-23T09:16:10.998Z,10.60
2024-02-23T09:18:38.181Z,10.60
2024-02-23T09:21:05.497Z,10.70
2024-02-23T09:23:33.869Z,10.70
2024-02-23T09:26:01.205Z,10.70
2024-02-23T09:28:28.353Z,10.80
2024-02-23T09:30:57.785Z,10.70
2024-02-23T09:33:25.707Z,10.70
2024-02-23T09:35:52.703Z,10.80
2024-02-23T09:38:21.088Z,10.80
2024-02-23T09:40:48.355Z,10.80
2024-02-23T09:43:17.823Z,10.80
2024-02-23T09:45:47.017Z,10.90
2024-02-23T09:48:19.040Z,10.90
2024-02-23T09:50:47.483Z,10.90
2024-02-23T09:53:15.437Z,10.90
2024-02-23T09:55:45.292Z,10.90
2024-02-23T09:58:14.304Z,11.00
2024-02-23T10:00:41.749Z,11.00
2024-02-23T10:03:08.978Z,11.00
2024-02-23T10:05:38.858Z,11.10
2024-02-23T10:08:08.333Z,11.10
2024-02-23T10:10:36.231Z,11.10
2024-02-23T10:13:06.963Z,11.10
2024-02-23T10:15:33.955Z,11.20
2024-02-23T10:18:01.133Z,11.20
2024-02-23T10:20:28.446Z,11.20
2024-02-23T10:22:56.490Z,11.20
2024-02-23T10:25:23.696Z,11.30
2024-02-23T10:27:50.696Z,11.30
2024-02-23T10:30:17.814Z,11.30
2024-02-23T10:32:45.020Z,11.30
2024-02-23T10:35:18.127Z,11.30
2024-02-23T10:37:48.822Z,11.30
2024-02-23T10:40:18.273Z,11.20
2024-02-23T10:42:52.494Z,11.20
2024-02-23T10:45:20.325Z,11.20
2024-02-23T10:47:48.904Z,11.30
2024-02-23T10:50:16.981Z,11.20
2024-02-23T10:52:44.638Z,11.20
2024-02-23T10:55:12.036Z,11.10
2024-02-23T10:57:40.434Z,11.20
2024-02-23T11:00:12.566Z,11.20
2024-02-23T11:02:46.080Z,11.20
2024-02-23T11:05:15.471Z,11.30
2024-02-23T11:07:42.868Z,11.20
2024-02-23T11:10:12.862Z,11.20
2024-02-23T11:12:39.797Z,11.30
2024-02-23T11:15:07.355Z,11.20
2024-02-23T11:17:38.537Z,11.20
2024-02-23T11:20:06.944Z,11.30
2024-02-23T11:22:39.066Z,11.30
2024-02-23T11:25:11.879Z,11.30
2024-02-23T11:27:42.231Z,11.30
2024-02-23T11:30:11.655Z,11.30
2024-02-23T11:32:44.802Z,11.30
2024-02-23T11:35:13.085Z,11.40
2024-02-23T11:38:00.478Z,11.40
2024-02-23T11:40:28.448Z,11.40
2024-02-23T11:42:58.726Z,11.40
2024-02-23T11:45:26.574Z,11.40
2024-02-23T11:47:53.727Z,11.40
2024-02-23T11:50:22.136Z,11.40
2024-02-23T11:52:49.864Z,11.50
2024-02-23T11:55:24.562Z,11.50
2024-02-23T11:57:58.726Z,11.50
2024-02-23T12:00:32.712Z,11.60
2024-02-23T12:03:00.766Z,11.60
2024-02-23T12:05:28.466Z,11.60
2024-02-23T12:07:55.953Z,11.70
2024-02-23T12:10:23.685Z,11.80
2024-02-23T12:12:50.852Z,11.90
2024-02-23T12:15:17.927Z,12.00
2024-02-23T12:17:49.440Z,12.10
2024-02-23T12:20:17.121Z,12.20
2024-02-23T12:22:44.220Z,12.30
2024-02-23T12:25:12.905Z,12.40
2024-02-23T12:27:39.909Z,12.40
2024-02-23T12:30:07.495Z,12.30
2024-02-23T12:32:34.654Z,12.30
2024-02-23T12:35:01.692Z,12.30
2024-02-23T12:37:28.674Z,12.30
2024-02-23T12:39:55.563Z,12.40
2024-02-23T12:42:22.524Z,12.40
2024-02-23T12:44:49.429Z,12.30
2024-02-23T12:47:16.393Z,12.30
2024-02-23T12:49:45.799Z,12.20
2024-02-23T12:52:13.764Z,12.30
2024-02-23T12:54:40.769Z,12.20
2024-02-23T12:57:08.433Z,12.20
2024-02-23T12:59:35.563Z,12.20
2024-02-23T13:02:02.644Z,12.10
2024-02-23T13:04:29.909Z,12.10
2024-02-23T13:06:57.657Z,12.10
2024-02-23T13:09:24.607Z,12.10
2024-02-23T13:11:51.691Z,12.10
2024-02-23T13:14:18.687Z,12.10
2024-02-23T13:16:45.658Z,12.10
2024-02-23T13:19:12.633Z,12.10
2024-02-23T13:21:40.266Z,12.10
2024-02-23T13:24:07.624Z,12.10
2024-02-23T13:26:34.583Z,12.20
2024-02-23T13:29:01.534Z,12.10
2024-02-23T13:31:28.483Z,12.10
2024-02-23T13:33:55.483Z,12.00
2024-02-23T13:36:22.463Z,12.00
2024-02-23T13:38:49.408Z,12.00
2024-02-23T13:41:16.399Z,12.00
2024-02-23T13:43:43.289Z,12.00
2024-02-23T13:46:10.239Z,12.00
2024-02-23T13:48:38.002Z,12.00
2024-02-23T13:51:06.257Z,12.00
2024-02-23T13:53:34.193Z,12.00
2024-02-23T13:56:04.234Z,11.90
2024-02-23T13:58:31.189Z,11.90
2024-02-23T14:00:58.204Z,11.90
2024-02-23T14:03:25.300Z,11.90
2024-02-23T14:05:52.970Z,11.90
2024-02-23T14:08:20.096Z,11.80
2024-02-23T14:10:47.298Z,11.80
2024-02-23T14:13:14.603Z,11.80
2024-02-23T14:15:41.519Z,11.70
2024-02-23T14:18:08.562Z,11.70
2024-02-23T14:20:35.489Z,11.70
2024-02-23T14:23:02.549Z,11.70
2024-02-23T14:25:29.549Z,11.70
2024-02-23T14:27:57.341Z,11.70
2024-02-23T14:30:24.282Z,11.60
2024-02-23T14:32:51.417Z,11.60
2024-02-23T14:35:18.563Z,11.60
2024-02-23T14:37:45.729Z,11.50
2024-02-23T14:40:13.230Z,11.50
2024-02-23T14:42:42.083Z,11.50
2024-02-23T14:45:10.522Z,11.50
2024-02-23T14:47:45.495Z,11.50
2024-02-23T14:50:13.596Z,11.50
2024-02-23T14:52:41.076Z,11.50
2024-02-23T14:55:08.217Z,11.40
2024-02-23T14:57:35.210Z,11.40
2024-02-23T15:00:02.348Z,11.50
2024-02-23T15:02:29.991Z,11.50
2024-02-23T15:04:57.220Z,11.50
2024-02-23T15:07:24.314Z,11.50
2024-02-23T15:09:51.290Z,11.50
2024-02-23T15:12:18.360Z,11.50
2024-02-23T15:14:45.378Z,11.50
2024-02-23T15:17:12.381Z,11.60
2024-02-23T15:19:39.364Z,11.50
2024-02-23T15:22:09.125Z,11.60
2024-02-23T15:24:36.151Z,11.50
2024-02-23T15:27:03.146Z,11.50
2024-02-23T15:29:30.162Z,11.50
2024-02-23T15:31:57.221Z,11.50
2024-02-23T15:34:24.381Z,11.60
2024-02-23T15:36:51.454Z,11.60
2024-02-23T15:39:18.449Z,11.60
2024-02-23T15:41:46.476Z,11.60
2024-02-23T15:44:13.516Z,11.60
2024-02-23T15:46:40.508Z,11.60
2024-02-23T15:49:21.368Z,11.50
2024-02-23T15:51:59.178Z,11.60
2024-02-23T15:54:31.123Z,11.50
2024-02-23T15:56:58.522Z,11.60
2024-02-23T15:59:26.336Z,11.50
2024-02-23T16:01:56.442Z,11.50
2024-02-23T16:04:23.656Z,11.50
2024-02-23T16:06:51.262Z,11.50
2024-02-23T16:09:19.662Z,11.60
2024-02-23T16:11:48.652Z,11.50
2024-02-23T16:14:16.234Z,11.60
2024-02-23T16:16:43.396Z,11.60
2024-02-23T16:19:12.316Z,11.60
2024-02-23T16:21:44.225Z,11.60
2024-02-23T16:24:11.166Z,11.60
2024-02-23T16:26:41.822Z,11.60
2024-02-23T16:29:09.417Z,11.60
2024-02-23T16:31:40.978Z,11.60
2024-02-23T16:34:07.902Z,11.50
2024-02-23T16:36:34.852Z,11.40
2024-02-23T16:39:01.836Z,11.40
2024-02-23T16:41:28.754Z,11.40
2024-02-23T16:43:57.637Z,11.40
2024-02-23T16:46:24.908Z,11.30
2024-02-23T16:48:51.928Z,11.30
2024-02-23T16:51:18.955Z,11.40
2024-02-23T16:53:46.387Z,11.30
2024-02-23T16:56:13.397Z,11.40
2024-02-23T16:58:40.370Z,11.40
2024-02-23T17:01:08.813Z,11.50
2024-02-23T17:03:36.618Z,11.50
2024-02-23T17:06:07.845Z,11.50
2024-02-23T17:08:34.979Z,11.50
2024-02-23T17:11:02.242Z,11.50
2024-02-23T17:13:29.330Z,11.50
2024-02-23T17:15:56.286Z,11.50
2024-02-23T17:18:24.182Z,11.50
2024-02-23T17:20:56.417Z,11.50
2024-02-23T17:23:25.013Z,11.50
2024-02-23T17:25:52.120Z,11.50
2024-02-23T17:28:19.031Z,11.50
2024-02-23T17:30:45.898Z,11.50
2024-02-23T17:33:12.850Z,11.50
2024-02-23T17:35:40.287Z,11.50
2024-02-23T17:38:08.035Z,11.50
2024-02-23T17:40:35.052Z,11.40
2024-02-23T17:43:01.941Z,11.50
2024-02-23T17:45:28.815Z,11.40
2024-02-23T17:47:56.454Z,11.40
2024-02-23T17:50:23.859Z,11.50
2024-02-23T17:52:50.846Z,11.40
2024-02-23T17:55:17.948Z,11.50
2024-02-23T17:57:45.655Z,11.40
2024-02-23T18:00:14.864Z,11.40
2024-02-23T18:02:41.874Z,11.40
2024-02-23T18:05:09.082Z,11.50
2024-02-23T18:07:36.334Z,11.40
2024-02-23T18:10:04.248Z,11.50
2024-02-23T18:12:31.394Z,11.40
2024-02-23T18:14:58.372Z,11.40
2024-02-23T18:17:25.498Z,11.40
2024-02-23T18:19:52.736Z,11.40
2024-02-23T18:22:19.743Z,11.40
2024-02-23T18:24:46.757Z,11.40
2024-02-23T18:27:13.812Z,11.40
2024-02-23T18:29:42.488Z,11.40
2024-02-23T18:32:10.333Z,11.40
2024-02-23T18:34:37.773Z,11.30
2024-02-23T18:37:06.785Z,11.30
2024-02-23T18:39:34.211Z,11.30
2024-02-23T18:42:01.152Z,11.30
2024-02-23T18:44:28.088Z,11.30
2024-02-23T18:46:55.311Z,11.30
2024-02-23T18:49:22.243Z,11.30
2024-02-23T18:51:50.195Z,11.30
2024-02-23T18:54:17.215Z,11.30
2024-02-23T18:56:44.327Z,11.30
2024-02-23T18:59:11.369Z,11.20
2024-02-23T19:01:38.344Z,11.20
2024-02-23T19:04:05.603Z,11.20
2024-02-23T19:06:32.680Z,11.20
2024-02-23T19:09:00.131Z,11.30
2024-02-23T19:11:27.144Z,11.30
2024-02-23T19:13:54.157Z,11.30
2024-02-23T19:16:22.166Z,11.20
2024-02-23T19:18:49.109Z,11.30
2024-02-23T19:21:19.050Z,11.20
2024-02-23T19:23:46.449Z,11.30
2024-02-23T19:26:13.611Z,11.20
2024-02-23T19:28:41.029Z,11.20
2024-02-23T19:31:07.998Z,11.20
2024-02-23T19:33:34.996Z,11.20
2024-02-23T19:36:02.027Z,11.20
2024-02-23T19:38:29.176Z,11.20
2024-02-23T19:40:56.122Z,11.20
2024-02-23T19:43:23.096Z,11.20
2024-02-23T19:45:59.991Z,11.20
2024-02-23T19:48:30.933Z,11.20
2024-02-23T19:50:57.907Z,11.20
2024-02-23T19:53:25.214Z,11.20
2024-02-23T19:55:52.208Z,11.10
2024-02-23T19:58:19.352Z,11.10
2024-02-23T20:00:46.244Z,11.10
2024-02-23T20:03:13.160Z,11.10
2024-02-23T20:05:40.147Z,11.10
2024-02-23T20:08:07.352Z,11.20
2024-02-23T20:10:35.869Z,11.10
2024-02-23T20:13:03.044Z,11.20
2024-02-23T20:15:30.033Z,11.10
2024-02-23T20:17:57.179Z,11.10
2024-02-23T20:20:24.300Z,11.10
2024-02-23T20:22:51.296Z,11.10
2024-02-23T20:25:18.437Z,11.20
2024-02-23T20:27:45.461Z,11.20
2024-02-23T20:30:13.942Z,11.20
2024-02-23T20:32:41.217Z,11.20
2024-02-23T20:35:09.647Z,11.20
2024-02-23T20:37:38.709Z,11.30
2024-02-23T20:40:09.870Z,11.30
2024-02-23T20:42:36.764Z,11.30
2024-02-23T20:45:03.863Z,11.30
2024-02-23T20:47:30.876Z,11.30
2024-02-23T20:49:57.831Z,11.30
2024-02-23T20:52:24.733Z,11.30
2024-02-23T20:54:51.655Z,11.30
2024-02-23T20:57:19.156Z,11.40
2024-02-23T20:59:46.293Z,11.30
2024-02-23T21:02:20.473Z,11.40
2024-02-23T21:04:48.375Z,11.40
2024-02-23T21:07:18.228Z,11.40
2024-02-23T21:09:46.282Z,11.40
2024-02-23T21:12:13.630Z,11.40
2024-02-23T21:14:41.552Z,11.40
2024-02-23T21:17:08.767Z,11.40
2024-02-23T21:19:35.764Z,11.40
2024-02-23T21:22:04.022Z,11.40
2024-02-23T21:24:33.204Z,11.40
2024-02-23T21:27:00.297Z,11.50
2024-02-23T21:29:27.477Z,11.50
2024-02-23T21:31:54.817Z,11.50
2024-02-23T21:34:21.875Z,11.50
2024-02-23T21:36:48.906Z,11.50
2024-02-23T21:39:15.812Z,11.50
2024-02-23T21:41:42.842Z,11.50
2024-02-23T21:44:09.832Z,11.50
2024-02-23T21:46:36.741Z,11.50
2024-02-23T21:49:04.053Z,11.50
2024-02-23T21:51:31.313Z,11.60
2024-02-23T21:53:58.265Z,11.60
2024-02-23T21:56:25.424Z,11.70
2024-02-23T21:58:52.365Z,11.70
2024-02-23T22:01:23.111Z,11.80
2024-02-23T22:03:54.094Z,11.80
2024-02-23T22:06:22.226Z,11.80
2024-02-23T22:08:49.362Z,11.90
2024-02-23T22:11:16.867Z,11.90
2024-02-23T22:13:44.777Z,11.90
2024-02-23T22:16:12.000Z,12.00
2024-02-23T22:18:39.071Z,12.00
2024-02-23T22:21:06.371Z,12.10
2024-02-23T22:23:33.328Z,12.10
2024-02-23T22:26:02.375Z,12.20
2024-02-23T22:28:29.599Z,12.20
2024-02-23T22:30:56.495Z,12.20
2024-02-23T22:33:23.725Z,12.20
2024-02-23T22:35:50.903Z,12.20
2024-02-23T22:38:17.877Z,12.20
2024-02-23T22:40:44.939Z,12.20
2024-02-23T22:43:12.134Z,12.10
2024-02-23T22:45:39.089Z,12.10
2024-02-23T22:48:06.686Z,12.00
2024-02-23T22:50:33.707Z,12.00
2024-02-23T22:53:00.611Z,12.00
2024-02-23T22:55:27.494Z,12.00
2024-02-23T22:57:54.364Z,12.00
2024-02-23T23:00:21.274Z,11.90
2024-02-23T23:02:48.262Z,12.00
2024-02-23T23:05:15.631Z,11.90
2024-02-23T23:07:42.733Z,11.90
2024-02-23T23:10:10.225Z,12.00
2024-02-23T23:12:37.105Z,12.00
2024-02-23T23:15:04.174Z,12.00
2024-02-23T23:17:31.200Z,11.90
2024-02-23T23:19:58.198Z,12.00
2024-02-23T23:22:25.196Z,11.90
2024-02-23T23:24:52.516Z,12.00
2024-02-23T23:27:19.478Z,11.90
2024-02-23T23:29:46.373Z,11.90
2024-02-23T23:32:14.073Z,11.90
2024-02-23T23:34:43.862Z,11.80
2024-02-23T23:37:10.768Z,11.90
2024-02-23T23:39:38.307Z,11.80
2024-02-23T23:42:05.450Z,11.80
2024-02-23T23:44:32.406Z,11.80
2024-02-23T23:46:59.331Z,11.80
2024-02-23T23:49:26.234Z,11.90
2024-02-23T23:52:00.814Z,11.90
2024-02-23T23:54:30.956Z,11.80
2024-02-23T23:56:59.594Z,11.80
2024-02-23T23:59:26.602Z,11.80
